Terminal Aerodrome Forecast
Issued by NWS Mt. Holly, NJ

Home | Current Version | Previous Version | Text Only | Print | Product List | Glossary On
Versions: 1 2 3 4 5 6 7 8 9 10 11 12 13 14 15 16
992
FTUS41 KPHI 241722
TAFACY
TAF
KACY 241722Z 2418/2518 21012G22KT P6SM BKN150
     FM242300 20009KT P6SM BKN150
     FM250200 21008KT P6SM BKN150 WS020/24035KT
     FM251000 22006KT P6SM BKN090=

USA.gov is the U.S. government's official web portal to all federal, state and local government web resources and services.